• vieta
  • image
  • image
  • image
mod_vvisit_countermod_vvisit_countermod_vvisit_countermod_vvisit_countermod_vvisit_countermod_vvisit_countermod_vvisit_counter
mod_vvisit_counterŠiandien162
mod_vvisit_counterVakar311
mod_vvisit_counterŠią savaitę1369
mod_vvisit_counterPraėjusią savaitę4842
mod_vvisit_counterŠį mėnesį12937
mod_vvisit_counterPraėjusį mėnesį22275
mod_vvisit_counterViso1021169

Mes turime: 25 svečius, 3 bots online
Jūsų IP: 54.145.17.37
 , 
Šiandien: Lap 21, 2018
Oro uostas / Informacija keleiviams / Keleivių terminalas

Keleivių terminalas

 

Keleivių terminalo adresas:

Tarptautinis Šiaulių oro uostas

Lakūnų g. 4, LT-77103 Šiauliai, Lietuva

 

Terminale teikiamos šios paslaugos:

 

 

- Muitinės paslaugos

- Pasienio kontrolės paslaugos

- Aviacijos saugumo paslaugos

- Kavinė

 

atvykimas atvykimas2 isvykimas isvykimas2

 

kavine kavine1 kavine2 terminalas terminalas2

Šiandien

Trečiadienis, 21 Lapkritis 2018

Orų prognozė aviacijai

[source: ADDS]
METAR
EYSA 210350Z 05006KT 010V070 9999 OVC006 M03/M04 Q1030 R14L/09//95 YLO1 TEMPO OVC007 GRN =
TAF EYSA 210205Z 2103/2112 VRB05KT 5000 BR OVC005 TEMPO 2103/2106 3000 BECMG 2106/2107 9000 BKN040
TAF
TAF EYSA 210205Z 2103/2112 VRB05KT 5000 BR OVC005 TEMPO 2103/2106 3000 BECMG 2106/2107 9000 BKN040 =
SR / SS: 06:12 / 14:15 UTC (EYSA 2018-11-21)

Paieška

Lankytojai

Mes turime 28 svečius online

tic logo lt